Time;durP1;ratioP1;P1;durP2;ratioP2;P2;SDS_P1;SDS_P2;PMS_P1;PMS_P2;Temp;Humidity;BMP_temperature;BMP_pressure;BME280_temperature;BME280_humidity;BME280_pressure;Samples;Min_cycle;Max_cycle;Signal;HPM_P1;HPM_P2
2023/06/18 00:00:53;;;;;;;13.18;11.88;;;19.90;47.80;;;;;;5073113;28;20173;-55
2023/06/18 00:03:19;;;;;;;13.00;11.70;;;19.90;47.80;;;;;;5072877;28;20215;-53
2023/06/18 00:05:45;;;;;;;14.15;12.85;;;19.90;47.80;;;;;;5073119;28;20168;-57
2023/06/18 00:08:11;;;;;;;13.97;12.60;;;19.90;47.60;;;;;;5072967;28;20212;-55
2023/06/18 00:10:37;;;;;;;13.63;12.13;;;19.90;47.60;;;;;;5072872;28;20165;-55
2023/06/18 00:13:04;;;;;;;14.07;12.67;;;19.80;47.50;;;;;;5024951;28;1383061;-56
2023/06/18 00:15:30;;;;;;;15.90;14.40;;;19.80;47.60;;;;;;5074032;28;20173;-58
2023/06/18 00:17:56;;;;;;;15.80;13.90;;;19.80;47.70;;;;;;5073730;28;20203;-54
2023/06/18 00:20:22;;;;;;;15.47;13.97;;;19.80;47.90;;;;;;5073853;28;20415;-54
2023/06/18 00:22:48;;;;;;;13.70;12.43;;;19.80;47.90;;;;;;5074007;28;20814;-57
2023/06/18 00:25:15;;;;;;;14.40;13.10;;;19.80;47.70;;;;;;5073613;28;20191;-54
2023/06/18 00:27:42;;;;;;;13.35;12.05;;;19.70;47.50;;;;;;5073725;28;20407;-58
2023/06/18 00:30:08;;;;;;;14.38;12.82;;;19.70;47.60;;;;;;5073323;28;20169;-53
2023/06/18 00:32:33;;;;;;;12.38;11.27;;;19.70;47.70;;;;;;5073708;28;20211;-58
2023/06/18 00:35:00;;;;;;;12.87;11.47;;;19.70;47.50;;;;;;5073680;28;20596;-58
2023/06/18 00:37:27;;;;;;;15.07;13.57;;;19.70;47.60;;;;;;5073532;28;20272;-55
2023/06/18 00:39:56;;;;;;;13.25;11.50;;;19.70;47.40;;;;;;5073134;28;20180;-59
2023/06/18 00:42:22;;;;;;;13.32;11.93;;;19.60;47.30;;;;;;5072497;28;20204;-55
2023/06/18 00:44:48;;;;;;;13.07;11.50;;;19.60;47.40;;;;;;5072925;28;20180;-54
2023/06/18 00:47:17;;;;;;;14.43;13.13;;;18.40;46.80;;;;;;5073311;28;20168;-58
2023/06/18 00:49:43;;;;;;;12.95;11.65;;;19.50;47.60;;;;;;5072983;28;20505;-54
2023/06/18 00:52:13;;;;;;;13.85;12.35;;;19.40;47.80;;;;;;5071839;28;20187;-54
2023/06/18 00:54:44;;;;;;;12.95;11.75;;;19.40;47.90;;;;;;5073195;28;20176;-59
2023/06/18 00:57:13;;;;;;;13.65;11.75;;;19.40;47.80;;;;;;5072942;28;20176;-56
2023/06/18 00:59:42;;;;;;;13.52;12.07;;;19.40;47.90;;;;;;5072624;28;20782;-57
2023/06/18 01:02:08;;;;;;;13.90;11.55;;;19.40;47.80;;;;;;5072739;28;20212;-55
2023/06/18 01:04:36;;;;;;;12.60;11.30;;;19.40;47.70;;;;;;5073097;28;20517;-55
2023/06/18 01:07:03;;;;;;;11.40;10.30;;;19.30;47.70;;;;;;5072820;28;20172;-57
2023/06/18 01:09:30;;;;;;;10.65;9.65;;;19.30;47.70;;;;;;5072379;28;20672;-55
2023/06/18 01:11:57;;;;;;;10.55;9.55;;;19.30;47.60;;;;;;5072734;28;20189;-55
2023/06/18 01:14:26;;;;;;;10.95;9.93;;;19.30;47.50;;;;;;5072818;28;20238;-58
2023/06/18 01:17:03;;;;;;;10.25;9.25;;;19.30;47.50;;;;;;5072937;28;20319;-55
2023/06/18 01:19:55;;;;;;;11.98;10.88;;;19.30;48.10;;;;;;5072480;28;20199;-57
2023/06/18 01:22:26;;;;;;;12.15;9.95;;;19.20;47.40;;;;;;5072438;28;20701;-58
2023/06/18 01:24:55;;;;;;;12.82;10.52;;;19.20;47.40;;;;;;5072447;28;20320;-55
2023/06/18 01:27:25;;;;;;;10.65;9.65;;;19.20;47.40;;;;;;5072427;28;20173;-58
2023/06/18 01:29:51;;;;;;;11.32;10.20;;;19.10;47.50;;;;;;5072539;28;20195;-54
2023/06/18 01:32:19;;;;;;;11.98;10.75;;;19.10;47.60;;;;;;5072393;28;20182;-55
2023/06/18 01:34:45;;;;;;;10.40;9.40;;;19.10;47.60;;;;;;5072357;28;20180;-57
2023/06/18 01:37:24;;;;;;;11.77;9.33;;;19.10;47.60;;;;;;5072246;28;20177;-57
2023/06/18 01:40:02;;;;;;;9.50;8.60;;;19.20;47.50;;;;;;5072092;28;20430;-55
2023/06/18 01:42:32;;;;;;;9.73;8.73;;;19.20;47.50;;;;;;5072128;28;20220;-57
2023/06/18 01:45:13;;;;;;;11.30;10.10;;;19.10;47.50;;;;;;5072322;28;20248;-54
2023/06/18 01:47:42;;;;;;;14.07;11.75;;;19.10;47.60;;;;;;5072111;28;20643;-55
2023/06/18 01:50:09;;;;;;;13.43;12.13;;;19.00;47.60;;;;;;5072131;28;20554;-57
2023/06/18 01:52:40;;;;;;;13.27;11.68;;;19.00;47.70;;;;;;5072063;28;20185;-55
2023/06/18 01:55:07;;;;;;;12.00;10.68;;;19.00;47.80;;;;;;5072052;28;20176;-55
2023/06/18 01:57:33;;;;;;;12.13;10.93;;;19.00;47.80;;;;;;5072016;28;20374;-58
2023/06/18 01:59:59;;;;;;;11.45;9.77;;;19.00;47.90;;;;;;5071980;28;20609;-55
2023/06/18 02:02:25;;;;;;;11.60;10.50;;;19.00;48.00;;;;;;5072018;28;20199;-55
2023/06/18 02:04:51;;;;;;;10.00;9.05;;;19.00;48.00;;;;;;5072128;28;20199;-58
2023/06/18 02:07:16;;;;;;;10.30;9.33;;;19.00;48.00;;;;;;5071958;28;20802;-56
2023/06/18 02:09:42;;;;;;;11.70;10.50;;;19.00;47.90;;;;;;5071771;28;20196;-55
2023/06/18 02:12:08;;;;;;;10.63;9.10;;;19.00;47.70;;;;;;5071872;28;20929;-57
2023/06/18 02:14:34;;;;;;;9.95;9.00;;;19.00;47.80;;;;;;5072157;28;20406;-55
2023/06/18 02:17:01;;;;;;;11.03;9.93;;;18.90;47.90;;;;;;5070738;28;20186;-56
2023/06/18 02:19:27;;;;;;;10.48;9.35;;;18.90;47.90;;;;;;5071927;28;20513;-55
2023/06/18 02:21:53;;;;;;;11.83;10.60;;;18.80;48.10;;;;;;5071816;28;20700;-58
2023/06/18 02:24:19;;;;;;;10.97;9.90;;;18.80;48.10;;;;;;5071878;28;20187;-57
2023/06/18 02:26:45;;;;;;;10.80;9.70;;;18.80;48.20;;;;;;5071998;28;20417;-55
2023/06/18 02:29:11;;;;;;;10.03;9.03;;;18.80;48.00;;;;;;5071626;28;20275;-56
2023/06/18 02:31:37;;;;;;;11.47;9.00;;;18.80;47.90;;;;;;5071695;28;20413;-58
2023/06/18 02:34:02;;;;;;;10.70;9.03;;;18.80;48.00;;;;;;5071831;28;20234;-55
2023/06/18 02:36:28;;;;;;;11.50;10.43;;;18.80;48.00;;;;;;5071754;28;20165;-55
2023/06/18 02:38:55;;;;;;;10.70;9.63;;;18.80;48.20;;;;;;5071484;28;20427;-57
2023/06/18 02:41:21;;;;;;;9.50;8.68;;;18.70;48.20;;;;;;5071498;28;20165;-57
2023/06/18 02:43:50;;;;;;;10.73;9.65;;;18.70;48.10;;;;;;5071743;28;20367;-56
2023/06/18 02:46:17;;;;;;;9.80;8.80;;;18.70;48.00;;;;;;5071579;28;20678;-55
2023/06/18 02:48:43;;;;;;;10.73;9.70;;;18.70;48.00;;;;;;5071516;28;20677;-58
2023/06/18 02:51:10;;;;;;;9.83;8.93;;;18.70;48.10;;;;;;5071353;28;20255;-55
2023/06/18 02:53:36;;;;;;;10.68;9.57;;;18.70;48.10;;;;;;5070127;28;20541;-55
2023/06/18 02:56:03;;;;;;;10.52;9.50;;;18.70;48.00;;;;;;5071510;28;20177;-58
2023/06/18 02:58:28;;;;;;;9.50;8.50;;;18.70;48.10;;;;;;5070490;28;20262;-59
2023/06/18 03:00:59;;;;;;;12.00;10.50;;;18.60;48.10;;;;;;5071251;28;20645;-55
2023/06/18 03:03:26;;;;;;;8.57;7.78;;;18.70;48.10;;;;;;5071431;28;20733;-58
2023/06/18 03:05:52;;;;;;;15.90;9.45;;;18.60;48.10;;;;;;5071778;28;20271;-55
2023/06/18 03:08:21;;;;;;;9.60;8.70;;;18.60;47.80;;;;;;5074908;28;20184;-54
2023/06/18 03:10:46;;;;;;;11.90;10.38;;;18.60;48.00;;;;;;5075080;28;20173;-55
2023/06/18 03:13:13;;;;;;;9.27;8.13;;;18.60;48.00;;;;;;5074853;28;20267;-59
2023/06/18 03:15:39;;;;;;;9.73;8.80;;;18.60;48.10;;;;;;5074867;28;20234;-55
2023/06/18 03:18:05;;;;;;;10.57;9.57;;;18.50;48.10;;;;;;5074941;28;20193;-55
2023/06/18 03:20:32;;;;;;;10.15;9.02;;;18.50;48.10;;;;;;5074538;28;20407;-58
2023/06/18 03:22:58;;;;;;;10.30;9.20;;;18.50;47.90;;;;;;5074568;28;20215;-55
2023/06/18 03:25:24;;;;;;;10.50;8.02;;;18.40;48.10;;;;;;5075016;28;20184;-55
2023/06/18 03:27:52;;;;;;;13.03;9.87;;;18.30;48.20;;;;;;5074805;28;20250;-57
2023/06/18 03:30:18;;;;;;;8.98;8.07;;;18.30;48.40;;;;;;5074518;28;20165;-55
2023/06/18 03:32:44;;;;;;;9.30;8.20;;;18.30;48.40;;;;;;5074598;28;20184;-55
2023/06/18 03:35:10;;;;;;;9.63;8.68;;;18.30;48.60;;;;;;5074491;28;20179;-57
2023/06/18 03:37:36;;;;;;;10.27;9.27;;;18.30;48.60;;;;;;5074738;28;20180;-58
2023/06/18 03:40:03;;;;;;;9.35;8.45;;;18.30;48.40;;;;;;5074237;28;20238;-56
2023/06/18 03:42:29;;;;;;;10.23;9.23;;;18.30;48.70;;;;;;5074350;28;20277;-60
2023/06/18 03:44:55;;;;;;;9.75;8.80;;;18.20;49.00;;;;;;5074484;28;20252;-55
2023/06/18 03:47:21;;;;;;;8.60;7.80;;;18.20;49.10;;;;;;5074674;28;20255;-59
2023/06/18 03:49:47;;;;;;;10.47;9.37;;;18.20;48.90;;;;;;5073971;28;20199;-58
2023/06/18 03:52:13;;;;;;;10.60;9.50;;;18.20;48.90;;;;;;5074304;28;20407;-55
2023/06/18 03:54:38;;;;;;;10.10;9.10;;;18.20;49.10;;;;;;5072976;28;20168;-55
2023/06/18 03:57:05;;;;;;;9.03;8.13;;;18.30;49.20;;;;;;5074492;28;20211;-57
2023/06/18 03:59:31;;;;;;;10.48;9.52;;;18.20;49.10;;;;;;5072583;28;20203;-58
2023/06/18 04:01:57;;;;;;;9.32;8.43;;;18.30;49.30;;;;;;5074310;28;20180;-54
2023/06/18 04:04:23;;;;;;;9.87;8.87;;;18.30;49.20;;;;;;5073919;28;20230;-54
2023/06/18 04:06:48;;;;;;;9.40;8.47;;;18.20;49.50;;;;;;5074244;28;20433;-59
2023/06/18 04:09:14;;;;;;;10.47;9.47;;;18.20;49.60;;;;;;5073651;28;20422;-57
2023/06/18 04:11:43;;;;;;;8.77;7.87;;;18.20;50.00;;;;;;5072662;28;20168;-54
2023/06/18 04:14:09;;;;;;;12.85;9.60;;;18.20;50.00;;;;;;5073757;28;20188;-55
2023/06/18 04:16:35;;;;;;;9.70;8.70;;;18.30;49.70;;;;;;5074111;28;20180;-57
2023/06/18 04:19:01;;;;;;;8.73;7.90;;;18.40;49.60;;;;;;5072316;28;20458;-55
2023/06/18 04:21:27;;;;;;;9.05;8.07;;;18.40;49.90;;;;;;5073488;28;20181;-57
2023/06/18 04:23:53;;;;;;;11.53;9.60;;;18.40;50.10;;;;;;5073592;28;20185;-54
2023/06/18 04:26:20;;;;;;;9.85;8.85;;;18.50;50.20;;;;;;5073709;28;20168;-54
2023/06/18 04:28:45;;;;;;;9.90;8.90;;;18.50;50.10;;;;;;5073539;28;20220;-58
2023/06/18 04:31:11;;;;;;;11.13;9.20;;;18.50;50.10;;;;;;5073436;28;20200;-53
2023/06/18 04:33:37;;;;;;;10.67;9.60;;;18.60;50.00;;;;;;5073657;28;20180;-54
2023/06/18 04:36:03;;;;;;;11.60;10.40;;;18.70;50.10;;;;;;5073738;28;20604;-57
2023/06/18 04:38:28;;;;;;;9.00;8.20;;;18.80;50.00;;;;;;5073650;28;20668;-54
2023/06/18 04:40:54;;;;;;;9.77;8.87;;;18.80;50.10;;;;;;5073236;28;20407;-54
2023/06/18 04:43:20;;;;;;;10.30;9.30;;;18.90;50.00;;;;;;5073277;28;20197;-57
2023/06/18 04:45:46;;;;;;;9.33;8.43;;;19.00;49.90;;;;;;5073252;28;20164;-55
2023/06/18 04:48:14;;;;;;;11.80;9.95;;;19.00;49.80;;;;;;5073033;28;20688;-55
2023/06/18 04:50:40;;;;;;;10.00;9.00;;;19.10;49.80;;;;;;5072874;28;20542;-57
2023/06/18 04:53:06;;;;;;;9.20;8.30;;;19.20;49.80;;;;;;5073179;28;20176;-57
2023/06/18 04:55:32;;;;;;;13.63;10.37;;;19.20;49.40;;;;;;5073290;28;20233;-55
2023/06/18 04:57:58;;;;;;;10.30;9.33;;;19.30;49.30;;;;;;5072936;28;20196;-54
2023/06/18 05:00:24;;;;;;;10.20;9.30;;;19.30;49.20;;;;;;5072766;28;20176;-59
2023/06/18 05:02:50;;;;;;;9.88;8.95;;;19.40;49.30;;;;;;5072602;28;20454;-55
2023/06/18 05:05:15;;;;;;;10.23;9.20;;;19.40;49.50;;;;;;5072832;28;20173;-54
2023/06/18 05:07:42;;;;;;;11.53;9.80;;;19.40;49.30;;;;;;5072844;28;20416;-56
2023/06/18 05:10:08;;;;;;;10.52;9.50;;;19.50;49.30;;;;;;5072548;28;20167;-55
2023/06/18 05:12:35;;;;;;;10.77;9.68;;;19.50;49.50;;;;;;5072719;28;20200;-54
2023/06/18 05:15:01;;;;;;;9.32;8.38;;;19.60;49.50;;;;;;5071811;28;20204;-57
2023/06/18 05:17:27;;;;;;;10.05;8.90;;;19.60;49.50;;;;;;5072370;28;20191;-54
2023/06/18 05:19:53;;;;;;;10.00;9.10;;;19.70;49.10;;;;;;5071019;28;20173;-53
2023/06/18 05:22:19;;;;;;;8.97;8.17;;;19.70;49.10;;;;;;5072338;28;20200;-57
2023/06/18 05:24:45;;;;;;;13.00;9.83;;;19.80;49.50;;;;;;5072425;28;20164;-55
2023/06/18 05:27:11;;;;;;;10.55;9.55;;;19.90;49.10;;;;;;5072431;28;20168;-55
2023/06/18 05:29:36;;;;;;;10.10;9.10;;;20.00;48.50;;;;;;5072001;28;20192;-55
2023/06/18 05:32:03;;;;;;;10.00;9.13;;;20.00;48.10;;;;;;5072565;28;20230;-59
2023/06/18 05:34:29;;;;;;;9.80;8.90;;;20.10;48.40;;;;;;5072495;28;20218;-56
2023/06/18 05:36:54;;;;;;;10.00;8.40;;;20.10;48.50;;;;;;5072455;28;20550;-54
2023/06/18 05:39:20;;;;;;;10.03;9.10;;;20.20;48.40;;;;;;5072101;28;20199;-56
2023/06/18 05:41:48;;;;;;;8.80;8.00;;;20.30;48.50;;;;;;5072497;28;20663;-56
2023/06/18 05:44:14;;;;;;;9.15;8.35;;;20.50;48.30;;;;;;5072140;28;20481;-55
2023/06/18 05:46:39;;;;;;;8.30;7.50;;;20.60;47.40;;;;;;5072092;28;20578;-57
2023/06/18 05:49:05;;;;;;;8.57;7.57;;;20.60;47.50;;;;;;5071970;28;20433;-54
2023/06/18 05:51:31;;;;;;;8.03;7.23;;;20.70;47.10;;;;;;5072361;28;20176;-54
2023/06/18 05:53:56;;;;;;;13.77;7.57;;;20.80;47.00;;;;;;5072052;28;20539;-56
2023/06/18 05:56:22;;;;;;;8.83;8.03;;;20.80;47.10;;;;;;5072149;28;20179;-55
2023/06/18 05:58:48;;;;;;;11.17;10.17;;;20.90;46.90;;;;;;5071966;28;20188;-58
2023/06/18 06:01:14;;;;;;;11.43;8.43;;;21.00;47.30;;;;;;5071548;28;20176;-56
2023/06/18 06:03:40;;;;;;;9.00;8.20;;;21.00;47.10;;;;;;5071937;28;20200;-55
2023/06/18 06:06:05;;;;;;;10.00;9.10;;;21.10;47.00;;;;;;5071977;28;20182;-54
2023/06/18 06:08:32;;;;;;;8.50;7.33;;;21.20;45.70;;;;;;5070463;28;20196;-57
2023/06/18 06:10:58;;;;;;;8.18;7.47;;;21.30;46.10;;;;;;5069407;28;20402;-59
2023/06/18 06:13:24;;;;;;;9.83;8.80;;;21.30;46.50;;;;;;5071797;28;20653;-55
2023/06/18 06:15:50;;;;;;;9.13;8.30;;;21.40;46.40;;;;;;5071788;28;20177;-55
2023/06/18 06:18:16;;;;;;;9.32;8.43;;;21.50;45.40;;;;;;5072054;28;20275;-55
2023/06/18 06:20:42;;;;;;;9.50;7.70;;;21.60;45.60;;;;;;5071685;28;20209;-54
2023/06/18 06:23:07;;;;;;;9.70;8.80;;;21.70;45.50;;;;;;5071750;28;20196;-56
2023/06/18 06:25:33;;;;;;;7.73;6.93;;;21.80;44.90;;;;;;5071768;28;20169;-57
2023/06/18 06:27:59;;;;;;;11.85;8.07;;;21.90;44.60;;;;;;5070566;28;20195;-55
2023/06/18 06:30:25;;;;;;;8.73;7.87;;;22.00;45.00;;;;;;5071360;28;20172;-55
2023/06/18 06:32:51;;;;;;;9.30;8.50;;;22.10;45.30;;;;;;5071835;28;20176;-56
2023/06/18 06:35:17;;;;;;;8.27;7.47;;;22.20;44.50;;;;;;5071889;28;20825;-54
2023/06/18 06:37:43;;;;;;;9.83;8.63;;;22.30;44.30;;;;;;5071524;28;20421;-57
2023/06/18 06:40:09;;;;;;;8.60;7.80;;;22.40;44.90;;;;;;5071770;28;20173;-58
2023/06/18 06:42:35;;;;;;;8.10;7.40;;;22.50;44.20;;;;;;5074731;28;20458;-54
2023/06/18 06:45:02;;;;;;;8.77;7.83;;;22.70;44.80;;;;;;5075364;28;20411;-58
2023/06/18 06:47:28;;;;;;;8.20;7.50;;;22.80;44.60;;;;;;5075672;28;20506;-54
2023/06/18 06:49:54;;;;;;;8.87;7.97;;;22.90;44.30;;;;;;5075164;28;20486;-56
2023/06/18 06:52:20;;;;;;;8.93;8.10;;;23.00;43.40;;;;;;5075425;28;20436;-56
2023/06/18 06:54:47;;;;;;;9.03;8.23;;;23.10;42.50;;;;;;5075325;28;20188;-56
2023/06/18 06:57:13;;;;;;;9.40;8.50;;;23.10;42.10;;;;;;5075236;28;20918;-55
2023/06/18 06:59:39;;;;;;;7.87;7.07;;;23.20;42.50;;;;;;5074813;28;20426;-56
2023/06/18 07:02:05;;;;;;;9.07;7.60;;;23.30;41.80;;;;;;5075192;28;20417;-56
2023/06/18 07:04:31;;;;;;;8.03;7.10;;;23.40;41.70;;;;;;5075476;28;20274;-58
2023/06/18 07:06:57;;;;;;;8.70;7.80;;;23.40;40.80;;;;;;5075243;28;20450;-56
2023/06/18 07:09:22;;;;;;;11.63;7.53;;;23.50;40.70;;;;;;5074877;28;20450;-58
2023/06/18 07:11:48;;;;;;;9.60;8.50;;;23.60;41.30;;;;;;5074905;28;20188;-54
2023/06/18 07:14:15;;;;;;;8.77;7.97;;;23.70;40.50;;;;;;5074931;28;20541;-54
2023/06/18 07:16:40;;;;;;;9.40;7.93;;;23.80;40.10;;;;;;5075081;28;20184;-59
2023/06/18 07:19:06;;;;;;;8.30;7.60;;;23.90;40.60;;;;;;5074686;28;20884;-58
2023/06/18 07:21:32;;;;;;;8.33;7.57;;;24.00;40.60;;;;;;5074761;28;20280;-55
2023/06/18 07:23:58;;;;;;;9.53;8.57;;;24.10;40.70;;;;;;5074716;28;20204;-58
2023/06/18 07:26:23;;;;;;;9.00;8.20;;;24.20;40.00;;;;;;5074659;28;20251;-55
2023/06/18 07:28:49;;;;;;;8.87;8.00;;;24.30;38.90;;;;;;5074686;28;20267;-56
2023/06/18 07:31:15;;;;;;;9.60;8.67;;;24.30;39.00;;;;;;5074603;28;20533;-59
2023/06/18 07:33:41;;;;;;;9.60;8.77;;;24.30;39.40;;;;;;5074917;28;20409;-56
2023/06/18 07:36:07;;;;;;;9.27;8.37;;;24.40;38.90;;;;;;5074586;28;20165;-55
2023/06/18 07:38:33;;;;;;;8.87;8.17;;;24.40;38.40;;;;;;5074498;28;20198;-58
2023/06/18 07:40:58;;;;;;;9.27;8.47;;;24.50;38.00;;;;;;5074241;28;20745;-57
2023/06/18 07:43:24;;;;;;;9.43;8.53;;;24.50;37.20;;;;;;5074387;28;20196;-56
2023/06/18 07:45:50;;;;;;;7.90;7.20;;;24.50;37.20;;;;;;5074447;28;20165;-56
2023/06/18 07:48:16;;;;;;;8.20;7.40;;;24.70;37.40;;;;;;5074547;28;20280;-58
2023/06/18 07:50:42;;;;;;;7.67;6.83;;;24.70;36.30;;;;;;5074053;28;20645;-56
2023/06/18 07:53:07;;;;;;;8.30;7.60;;;24.80;37.20;;;;;;5073840;28;20647;-59
2023/06/18 07:55:33;;;;;;;7.67;6.80;;;24.90;37.20;;;;;;5072999;28;20419;-55
2023/06/18 07:57:59;;;;;;;11.50;8.10;;;25.00;37.40;;;;;;5073990;28;20741;-58
2023/06/18 08:00:25;;;;;;;9.80;8.53;;;25.10;36.50;;;;;;5074234;28;20192;-57
2023/06/18 08:02:51;;;;;;;8.20;7.50;;;25.20;37.40;;;;;;5074278;28;20576;-56
2023/06/18 08:05:17;;;;;;;9.30;7.97;;;25.30;37.20;;;;;;5074296;28;20192;-57
2023/06/18 08:07:43;;;;;;;7.43;6.70;;;25.50;36.70;;;;;;5073974;28;20447;-59
2023/06/18 08:10:09;;;;;;;7.83;7.13;;;25.70;35.80;;;;;;5073834;28;20449;-58
2023/06/18 08:12:35;;;;;;;8.40;6.80;;;25.80;35.00;;;;;;5072730;28;20192;-57
2023/06/18 08:15:00;;;;;;;8.17;7.37;;;25.90;35.20;;;;;;5072578;28;20475;-57
2023/06/18 08:17:26;;;;;;;7.50;6.70;;;25.90;34.00;;;;;;5073684;28;20176;-59
2023/06/18 08:19:52;;;;;;;7.80;7.10;;;26.10;35.40;;;;;;5073471;28;20410;-56
2023/06/18 08:22:18;;;;;;;7.03;6.43;;;26.20;35.40;;;;;;5073663;28;20252;-55
2023/06/18 08:24:44;;;;;;;8.40;7.53;;;26.30;34.70;;;;;;5073896;28;20556;-57
2023/06/18 08:27:12;;;;;;;11.73;7.90;;;26.30;34.30;;;;;;5073559;28;20423;-54
2023/06/18 08:29:38;;;;;;;7.67;6.97;;;26.50;33.80;;;;;;5073534;28;20434;-56
2023/06/18 08:32:07;;;;;;;9.37;8.47;;;26.50;33.00;;;;;;5073524;28;20941;-58
2023/06/18 08:34:34;;;;;;;8.40;7.60;;;26.50;34.00;;;;;;5073654;28;20791;-56
2023/06/18 08:37:00;;;;;;;7.47;6.80;;;26.60;33.10;;;;;;5073544;28;20399;-54
2023/06/18 08:39:26;;;;;;;8.03;7.23;;;26.60;32.90;;;;;;5071741;28;20941;-57
2023/06/18 08:41:54;;;;;;;9.27;7.63;;;26.60;33.40;;;;;;5073506;28;20508;-56
2023/06/18 08:44:23;;;;;;;6.80;6.10;;;26.70;34.00;;;;;;5073117;28;20490;-59
2023/06/18 08:46:49;;;;;;;8.50;7.60;;;26.80;32.60;;;;;;5073135;28;20957;-55
2023/06/18 08:49:16;;;;;;;7.57;6.90;;;26.80;32.30;;;;;;5073036;28;20437;-54
2023/06/18 08:51:45;;;;;;;7.10;6.40;;;26.90;33.10;;;;;;5073054;28;20748;-60
2023/06/18 08:54:17;;;;;;;8.10;7.20;;;26.90;34.50;;;;;;5072575;28;20770;-58
2023/06/18 08:56:45;;;;;;;8.33;7.53;;;27.20;34.10;;;;;;5073053;28;20403;-55
2023/06/18 08:59:12;;;;;;;7.83;7.13;;;27.30;35.10;;;;;;5072766;28;20453;-54
2023/06/18 09:01:38;;;;;;;8.80;7.90;;;27.50;34.70;;;;;;5072702;28;20414;-57
2023/06/18 09:04:05;;;;;;;7.97;7.27;;;27.70;34.00;;;;;;5072154;28;20443;-57
2023/06/18 09:06:32;;;;;;;7.27;6.67;;;27.80;32.40;;;;;;5073028;28;20399;-56
2023/06/18 09:09:00;;;;;;;8.10;7.30;;;27.90;33.00;;;;;;5072581;28;20423;-57
2023/06/18 09:11:27;;;;;;;7.53;6.83;;;28.00;34.00;;;;;;5072564;28;20407;-56
2023/06/18 09:13:53;;;;;;;8.03;7.33;;;28.10;33.70;;;;;;5072453;28;20427;-55
2023/06/18 09:16:19;;;;;;;9.43;7.87;;;28.20;33.20;;;;;;5072725;28;20407;-56
2023/06/18 09:18:48;;;;;;;9.73;8.80;;;28.30;33.00;;;;;;5072563;28;20787;-58
2023/06/18 09:21:43;;;;;;;7.67;6.97;;;28.30;32.10;;;;;;5072210;28;20412;-56
2023/06/18 09:24:22;;;;;;;9.50;8.13;;;28.40;32.90;;;;;;5072510;28;20461;-56
2023/06/18 09:26:59;;;;;;;8.70;7.80;;;28.40;31.70;;;;;;5072391;28;20403;-55
2023/06/18 09:29:28;;;;;;;8.70;7.90;;;28.40;31.10;;;;;;5072304;28;20505;-58
2023/06/18 09:31:54;;;;;;;8.87;8.07;;;28.30;32.60;;;;;;5072307;28;20391;-57
2023/06/18 09:34:20;;;;;;;8.50;7.70;;;28.50;31.10;;;;;;5072567;28;20425;-53
2023/06/18 09:36:49;;;;;;;9.43;8.53;;;28.50;31.90;;;;;;5072299;28;20179;-57
2023/06/18 09:39:25;;;;;;;8.10;7.30;;;28.60;31.30;;;;;;5072113;28;20192;-59
2023/06/18 09:41:53;;;;;;;9.10;8.30;;;28.60;31.10;;;;;;5072465;28;20778;-55
2023/06/18 09:44:20;;;;;;;8.60;7.80;;;28.70;30.80;;;;;;5072045;28;20545;-57
2023/06/18 09:46:58;;;;;;;8.23;7.53;;;28.60;31.00;;;;;;5072109;28;20403;-59
2023/06/18 09:49:25;;;;;;;10.43;9.53;;;28.70;31.60;;;;;;5071876;28;20418;-56
2023/06/18 09:51:52;;;;;;;7.20;6.50;;;28.90;31.70;;;;;;5072046;28;20410;-55
2023/06/18 09:54:19;;;;;;;10.80;9.17;;;29.00;32.20;;;;;;5071992;28;20771;-57
2023/06/18 09:56:59;;;;;;;8.90;8.00;;;29.10;32.50;;;;;;5071907;28;20439;-56
2023/06/18 09:59:26;;;;;;;8.67;7.87;;;29.30;31.30;;;;;;5071983;28;20438;-57
2023/06/18 10:01:54;;;;;;;9.23;8.27;;;29.30;32.20;;;;;;5072144;28;20438;-55
2023/06/18 10:04:21;;;;;;;8.40;7.70;;;29.40;32.40;;;;;;5072077;28;20492;-58
2023/06/18 10:06:51;;;;;;;8.50;7.70;;;29.50;31.80;;;;;;5071990;28;20403;-60
2023/06/18 10:09:20;;;;;;;8.20;7.40;;;29.60;31.00;;;;;;5071949;28;20767;-53
2023/06/18 10:11:49;;;;;;;8.70;7.80;;;29.70;30.00;;;;;;5071978;28;20447;-53
2023/06/18 10:14:18;;;;;;;8.40;7.60;;;29.80;30.00;;;;;;5071878;28;20391;-57
2023/06/18 10:16:51;;;;;;;7.83;7.13;;;29.80;31.00;;;;;;5075484;28;20477;-56
2023/06/18 10:19:25;;;;;;;8.17;7.37;;;29.90;32.00;;;;;;5075821;28;20476;-56
2023/06/18 10:21:58;;;;;;;7.90;7.17;;;30.10;31.70;;;;;;5075890;28;20416;-59
2023/06/18 10:24:30;;;;;;;7.50;6.80;;;30.20;31.30;;;;;;5075817;28;20451;-55
2023/06/18 10:26:56;;;;;;;7.43;6.73;;;30.30;32.10;;;;;;5076168;28;20865;-59
2023/06/18 10:29:22;;;;;;;8.00;7.20;;;30.40;30.40;;;;;;5075617;28;20977;-56
2023/06/18 10:31:50;;;;;;;8.60;7.60;;;30.50;28.10;;;;;;5075808;28;20406;-55
2023/06/18 10:34:17;;;;;;;8.40;6.87;;;30.50;30.60;;;;;;5075954;28;20825;-59
2023/06/18 10:36:45;;;;;;;8.37;6.70;;;30.60;29.40;;;;;;5075701;28;20933;-55
2023/06/18 10:39:11;;;;;;;8.10;6.40;;;30.70;29.10;;;;;;5075603;28;20426;-56
2023/06/18 10:41:37;;;;;;;8.93;8.13;;;30.80;29.10;;;;;;5075429;28;20456;-59
2023/06/18 10:44:03;;;;;;;8.50;7.63;;;30.90;28.90;;;;;;5075404;28;20447;-56
2023/06/18 10:46:33;;;;;;;9.07;8.20;;;31.00;29.20;;;;;;5075659;28;20173;-57
2023/06/18 10:49:20;;;;;;;7.40;6.70;;;31.00;28.70;;;;;;5075677;28;20429;-56
2023/06/18 10:52:10;;;;;;;8.30;7.40;;;31.20;28.80;;;;;;5075337;28;20402;-58
2023/06/18 10:54:38;;;;;;;8.80;8.00;;;31.20;28.30;;;;;;5074661;28;20425;-58
2023/06/18 10:57:04;;;;;;;8.37;7.53;;;31.30;28.00;;;;;;5075259;28;20806;-55
2023/06/18 10:59:45;;;;;;;8.20;7.40;;;31.30;29.00;;;;;;5075200;28;20487;-56
2023/06/18 11:02:12;;;;;;;8.37;7.53;;;31.40;27.40;;;;;;5075255;28;20391;-55
2023/06/18 11:04:38;;;;;;;10.57;8.17;;;31.50;29.20;;;;;;5075182;28;20394;-55
2023/06/18 11:07:23;;;;;;;7.80;6.50;;;31.60;26.80;;;;;;5075257;28;20410;-58
2023/06/18 11:09:57;;;;;;;9.30;7.07;;;31.70;28.00;;;;;;5074714;28;20433;-55
2023/06/18 11:12:33;;;;;;;8.00;6.33;;;31.80;27.10;;;;;;5074935;28;20787;-58
2023/06/18 11:15:16;;;;;;;8.20;7.37;;;31.70;26.80;;;;;;5074914;28;20406;-56
2023/06/18 11:17:49;;;;;;;7.60;7.00;;;31.70;26.70;;;;;;5074808;28;20883;-56
2023/06/18 11:20:18;;;;;;;7.40;6.70;;;31.70;26.50;;;;;;5074740;28;20403;-58
2023/06/18 11:22:44;;;;;;;8.60;7.80;;;31.70;25.00;;;;;;5074789;28;20478;-56
2023/06/18 11:25:12;;;;;;;7.87;7.17;;;31.60;25.50;;;;;;5075101;28;20394;-56
2023/06/18 11:27:44;;;;;;;10.37;7.07;;;31.50;25.80;;;;;;5074046;28;20406;-58
2023/06/18 11:30:13;;;;;;;9.20;7.73;;;31.50;26.10;;;;;;5074756;28;20406;-56
2023/06/18 11:32:40;;;;;;;7.97;7.20;;;31.50;26.20;;;;;;5074979;28;20399;-57
2023/06/18 11:35:10;;;;;;;7.00;6.30;;;31.60;27.00;;;;;;5074553;28;20413;-55
2023/06/18 11:37:44;;;;;;;7.20;6.57;;;31.70;27.00;;;;;;5074375;28;20922;-54
2023/06/18 11:40:10;;;;;;;7.10;6.40;;;31.80;26.00;;;;;;5072828;28;20418;-58
2023/06/18 11:42:46;;;;;;;7.57;6.87;;;31.90;26.30;;;;;;5074370;28;20443;-55
2023/06/18 11:45:12;;;;;;;8.83;7.70;;;31.90;26.30;;;;;;5074672;28;20414;-56
2023/06/18 11:47:48;;;;;;;7.53;6.90;;;31.80;26.60;;;;;;5074312;28;21156;-59
2023/06/18 11:50:17;;;;;;;7.20;6.57;;;31.90;25.60;;;;;;5074106;28;20173;-59
2023/06/18 11:52:44;;;;;;;8.07;7.10;;;32.00;26.90;;;;;;5074278;28;20549;-56
2023/06/18 11:55:11;;;;;;;8.23;7.43;;;32.00;27.00;;;;;;5074155;28;20457;-56
2023/06/18 11:57:37;;;;;;;9.30;8.40;;;32.10;26.60;;;;;;5074054;28;20887;-57
2023/06/18 12:00:10;;;;;;;9.43;7.50;;;32.20;24.20;;;;;;5074252;28;20403;-55
2023/06/18 12:02:41;;;;;;;8.60;7.70;;;32.20;25.00;;;;;;5074117;28;20811;-59
2023/06/18 12:05:08;;;;;;;7.60;6.90;;;32.20;25.50;;;;;;5074194;28;20724;-55
2023/06/18 12:07:38;;;;;;;8.63;7.83;;;32.20;27.00;;;;;;5072671;28;20498;-57
2023/06/18 12:10:09;;;;;;;7.43;6.83;;;32.30;27.10;;;;;;5073791;28;20497;-59
2023/06/18 12:13:06;;;;;;;8.13;7.43;;;32.40;26.00;;;;;;5074024;28;20588;-55
2023/06/18 12:15:44;;;;;;;9.20;8.30;;;32.50;26.10;;;;;;5074044;28;20513;-57
2023/06/18 12:18:28;;;;;;;8.10;7.10;;;32.50;26.70;;;;;;5074001;28;20419;-54
2023/06/18 12:20:55;;;;;;;6.97;6.30;;;32.50;25.60;;;;;;5073812;28;20744;-58
2023/06/18 12:23:22;;;;;;;7.03;6.47;;;32.50;25.70;;;;;;5072326;28;20460;-56
2023/06/18 12:25:48;;;;;;;7.70;7.00;;;32.60;25.30;;;;;;5073745;28;20403;-55
2023/06/18 12:28:14;;;;;;;9.03;8.13;;;32.60;25.20;;;;;;5073638;28;20426;-58
2023/06/18 12:30:41;;;;;;;7.70;7.00;;;32.70;25.30;;;;;;5073485;28;20407;-55
2023/06/18 12:33:09;;;;;;;8.07;7.37;;;32.80;25.10;;;;;;5073755;28;20210;-59
2023/06/18 12:35:36;;;;;;;8.80;8.00;;;32.80;24.90;;;;;;5073755;28;20407;-59
2023/06/18 12:38:04;;;;;;;7.93;7.23;;;32.90;24.90;;;;;;5072978;28;20810;-55
2023/06/18 12:40:31;;;;;;;20.30;18.33;;;33.00;24.40;;;;;;5072486;28;20407;-55
2023/06/18 12:42:59;;;;;;;8.07;7.37;;;33.00;24.30;;;;;;5073315;28;20892;-56